sensor_id;sensor_type;location;lat;lon;timestamp;temperature;humidity
65989;HTU21D;53592;51.402;6.054;2022-10-30T00:00:23;16.65;74.37
65989;HTU21D;53592;51.402;6.054;2022-10-30T00:02:48;16.64;74.25
65989;HTU21D;53592;51.402;6.054;2022-10-30T00:05:15;16.59;74.24
65989;HTU21D;53592;51.402;6.054;2022-10-30T00:07:41;16.55;74.38
65989;HTU21D;53592;51.402;6.054;2022-10-30T00:10:07;16.49;74.49
65989;HTU21D;53592;51.402;6.054;2022-10-30T00:12:32;16.48;74.60
65989;HTU21D;53592;51.402;6.054;2022-10-30T00:14:58;16.47;74.66
65989;HTU21D;53592;51.402;6.054;2022-10-30T00:17:23;16.45;74.67
65989;HTU21D;53592;51.402;6.054;2022-10-30T00:19:49;16.43;74.67
65989;HTU21D;53592;51.402;6.054;2022-10-30T00:22:14;16.39;74.76
65989;HTU21D;53592;51.402;6.054;2022-10-30T00:24:40;16.34;74.83
65989;HTU21D;53592;51.402;6.054;2022-10-30T00:27:05;16.30;74.67
65989;HTU21D;53592;51.402;6.054;2022-10-30T00:29:31;16.27;74.64
65989;HTU21D;53592;51.402;6.054;2022-10-30T00:31:56;16.20;74.76
65989;HTU21D;53592;51.402;6.054;2022-10-30T00:34:22;16.13;74.87
65989;HTU21D;53592;51.402;6.054;2022-10-30T00:36:47;16.10;75.00
65989;HTU21D;53592;51.402;6.054;2022-10-30T00:39:13;16.07;75.03
65989;HTU21D;53592;51.402;6.054;2022-10-30T00:41:39;16.07;74.95
65989;HTU21D;53592;51.402;6.054;2022-10-30T00:44:31;16.06;74.88
65989;HTU21D;53592;51.402;6.054;2022-10-30T00:47:00;16.05;74.73
65989;HTU21D;53592;51.402;6.054;2022-10-30T00:49:34;16.01;74.71
65989;HTU21D;53592;51.402;6.054;2022-10-30T00:52:04;15.97;74.80
65989;HTU21D;53592;51.402;6.054;2022-10-30T00:54:32;15.95;74.97
65989;HTU21D;53592;51.402;6.054;2022-10-30T00:56:58;15.91;75.04
65989;HTU21D;53592;51.402;6.054;2022-10-30T00:59:29;15.90;74.85
65989;HTU21D;53592;51.402;6.054;2022-10-30T01:01:56;15.88;74.83
65989;HTU21D;53592;51.402;6.054;2022-10-30T01:04:22;15.87;74.99
65989;HTU21D;53592;51.402;6.054;2022-10-30T01:06:51;15.88;75.02
65989;HTU21D;53592;51.402;6.054;2022-10-30T01:09:21;15.89;74.83
65989;HTU21D;53592;51.402;6.054;2022-10-30T01:11:47;15.88;74.85
65989;HTU21D;53592;51.402;6.054;2022-10-30T01:14:17;15.85;74.90
65989;HTU21D;53592;51.402;6.054;2022-10-30T01:17:11;15.84;74.89
65989;HTU21D;53592;51.402;6.054;2022-10-30T01:19:49;15.82;74.90
65989;HTU21D;53592;51.402;6.054;2022-10-30T01:25:34;15.78;75.00
65989;HTU21D;53592;51.402;6.054;2022-10-30T01:36:26;15.62;75.16
65989;HTU21D;53592;51.402;6.054;2022-10-30T01:39:16;15.55;75.28
65989;HTU21D;53592;51.402;6.054;2022-10-30T01:41:43;15.46;75.47
65989;HTU21D;53592;51.402;6.054;2022-10-30T01:44:20;15.41;75.73
65989;HTU21D;53592;51.402;6.054;2022-10-30T01:49:54;15.38;75.95
65989;HTU21D;53592;51.402;6.054;2022-10-30T01:52:35;15.36;76.12
65989;HTU21D;53592;51.402;6.054;2022-10-30T01:57:52;15.37;76.30
65989;HTU21D;53592;51.402;6.054;2022-10-30T02:00:18;15.40;76.20
65989;HTU21D;53592;51.402;6.054;2022-10-30T02:02:45;15.38;76.17
65989;HTU21D;53592;51.402;6.054;2022-10-30T02:05:24;15.36;76.19
65989;HTU21D;53592;51.402;6.054;2022-10-30T02:07:52;15.32;76.32
65989;HTU21D;53592;51.402;6.054;2022-10-30T02:10:18;15.33;76.29
65989;HTU21D;53592;51.402;6.054;2022-10-30T02:12:44;15.32;76.31
65989;HTU21D;53592;51.402;6.054;2022-10-30T02:15:10;15.31;76.06
65989;HTU21D;53592;51.402;6.054;2022-10-30T02:17:36;15.24;76.21
65989;HTU21D;53592;51.402;6.054;2022-10-30T02:20:03;15.16;76.36
65989;HTU21D;53592;51.402;6.054;2022-10-30T02:22:30;15.08;76.38
65989;HTU21D;53592;51.402;6.054;2022-10-30T02:24:55;15.02;76.67
65989;HTU21D;53592;51.402;6.054;2022-10-30T02:27:21;15.00;76.60
65989;HTU21D;53592;51.402;6.054;2022-10-30T02:29:46;14.97;76.76
65989;HTU21D;53592;51.402;6.054;2022-10-30T02:32:13;14.94;76.79
65989;HTU21D;53592;51.402;6.054;2022-10-30T02:34:38;14.85;77.06
65989;HTU21D;53592;51.402;6.054;2022-10-30T02:37:04;14.83;77.29
65989;HTU21D;53592;51.402;6.054;2022-10-30T02:39:29;14.85;77.37
65989;HTU21D;53592;51.402;6.054;2022-10-30T02:41:55;14.86;77.48
65989;HTU21D;53592;51.402;6.054;2022-10-30T02:44:20;14.91;77.33
65989;HTU21D;53592;51.402;6.054;2022-10-30T02:46:46;14.96;77.05
65989;HTU21D;53592;51.402;6.054;2022-10-30T02:49:11;14.93;76.97
65989;HTU21D;53592;51.402;6.054;2022-10-30T02:51:37;14.86;77.38
65989;HTU21D;53592;51.402;6.054;2022-10-30T02:54:02;14.83;77.55
65989;HTU21D;53592;51.402;6.054;2022-10-30T02:56:28;14.78;77.76
65989;HTU21D;53592;51.402;6.054;2022-10-30T02:58:54;14.78;77.90
65989;HTU21D;53592;51.402;6.054;2022-10-30T03:01:20;14.79;78.08
65989;HTU21D;53592;51.402;6.054;2022-10-30T03:03:46;14.82;78.12
65989;HTU21D;53592;51.402;6.054;2022-10-30T03:06:14;14.86;78.11
65989;HTU21D;53592;51.402;6.054;2022-10-30T03:08:41;14.85;78.08
65989;HTU21D;53592;51.402;6.054;2022-10-30T03:11:12;14.83;78.13
65989;HTU21D;53592;51.402;6.054;2022-10-30T03:13:40;14.80;78.12
65989;HTU21D;53592;51.402;6.054;2022-10-30T03:16:08;14.75;78.23
65989;HTU21D;53592;51.402;6.054;2022-10-30T03:18:34;14.71;78.30
65989;HTU21D;53592;51.402;6.054;2022-10-30T03:21:02;14.72;78.18
65989;HTU21D;53592;51.402;6.054;2022-10-30T03:23:28;14.74;78.12
65989;HTU21D;53592;51.402;6.054;2022-10-30T03:25:55;14.78;78.07
65989;HTU21D;53592;51.402;6.054;2022-10-30T03:28:23;14.78;77.98
65989;HTU21D;53592;51.402;6.054;2022-10-30T03:30:50;14.82;77.87
65989;HTU21D;53592;51.402;6.054;2022-10-30T03:33:17;14.83;77.82
65989;HTU21D;53592;51.402;6.054;2022-10-30T03:35:43;14.81;77.86
65989;HTU21D;53592;51.402;6.054;2022-10-30T03:38:10;14.78;77.92
65989;HTU21D;53592;51.402;6.054;2022-10-30T03:40:36;14.78;77.98
65989;HTU21D;53592;51.402;6.054;2022-10-30T03:43:01;14.75;78.05
65989;HTU21D;53592;51.402;6.054;2022-10-30T03:45:27;14.73;77.97
65989;HTU21D;53592;51.402;6.054;2022-10-30T03:47:52;14.70;78.00
65989;HTU21D;53592;51.402;6.054;2022-10-30T03:50:18;14.66;77.78
65989;HTU21D;53592;51.402;6.054;2022-10-30T03:52:44;14.60;78.09
65989;HTU21D;53592;51.402;6.054;2022-10-30T03:55:09;14.54;78.28
65989;HTU21D;53592;51.402;6.054;2022-10-30T03:57:36;14.49;78.43
65989;HTU21D;53592;51.402;6.054;2022-10-30T04:00:02;14.40;78.74
65989;HTU21D;53592;51.402;6.054;2022-10-30T04:02:28;14.36;79.13
65989;HTU21D;53592;51.402;6.054;2022-10-30T04:04:53;14.34;79.27
65989;HTU21D;53592;51.402;6.054;2022-10-30T04:07:19;14.32;79.43
65989;HTU21D;53592;51.402;6.054;2022-10-30T04:09:44;14.33;79.53
65989;HTU21D;53592;51.402;6.054;2022-10-30T04:12:10;14.33;79.57
65989;HTU21D;53592;51.402;6.054;2022-10-30T04:14:35;14.32;79.49
65989;HTU21D;53592;51.402;6.054;2022-10-30T04:17:00;14.32;79.55
65989;HTU21D;53592;51.402;6.054;2022-10-30T04:19:26;14.34;79.35
65989;HTU21D;53592;51.402;6.054;2022-10-30T04:21:51;14.30;79.43
65989;HTU21D;53592;51.402;6.054;2022-10-30T04:24:17;14.30;79.50
65989;HTU21D;53592;51.402;6.054;2022-10-30T04:26:43;14.35;79.37
65989;HTU21D;53592;51.402;6.054;2022-10-30T04:29:09;14.39;79.20
65989;HTU21D;53592;51.402;6.054;2022-10-30T04:31:35;14.39;79.17
65989;HTU21D;53592;51.402;6.054;2022-10-30T04:34:00;14.38;79.13
65989;HTU21D;53592;51.402;6.054;2022-10-30T04:36:26;14.37;79.23
65989;HTU21D;53592;51.402;6.054;2022-10-30T04:38:57;14.36;79.33
65989;HTU21D;53592;51.402;6.054;2022-10-30T04:41:23;14.39;79.11
65989;HTU21D;53592;51.402;6.054;2022-10-30T04:43:49;14.39;78.95
65989;HTU21D;53592;51.402;6.054;2022-10-30T04:46:15;14.38;78.88
65989;HTU21D;53592;51.402;6.054;2022-10-30T04:48:42;14.41;78.81
65989;HTU21D;53592;51.402;6.054;2022-10-30T04:51:07;14.37;78.50
65989;HTU21D;53592;51.402;6.054;2022-10-30T04:53:34;14.27;78.85
65989;HTU21D;53592;51.402;6.054;2022-10-30T04:55:59;14.23;79.24
65989;HTU21D;53592;51.402;6.054;2022-10-30T04:58:25;14.15;79.75
65989;HTU21D;53592;51.402;6.054;2022-10-30T05:00:50;14.07;80.07
65989;HTU21D;53592;51.402;6.054;2022-10-30T05:03:21;14.04;80.38
65989;HTU21D;53592;51.402;6.054;2022-10-30T05:05:48;14.05;80.39
65989;HTU21D;53592;51.402;6.054;2022-10-30T05:08:19;14.10;80.16
65989;HTU21D;53592;51.402;6.054;2022-10-30T05:10:45;14.13;79.75
65989;HTU21D;53592;51.402;6.054;2022-10-30T05:13:10;14.09;79.81
65989;HTU21D;53592;51.402;6.054;2022-10-30T05:15:37;14.07;79.95
65989;HTU21D;53592;51.402;6.054;2022-10-30T05:18:02;14.08;79.98
65989;HTU21D;53592;51.402;6.054;2022-10-30T05:20:28;14.07;80.10
65989;HTU21D;53592;51.402;6.054;2022-10-30T05:22:55;14.04;80.30
65989;HTU21D;53592;51.402;6.054;2022-10-30T05:25:21;13.96;80.46
65989;HTU21D;53592;51.402;6.054;2022-10-30T05:27:47;13.96;80.65
65989;HTU21D;53592;51.402;6.054;2022-10-30T05:30:12;13.96;80.71
65989;HTU21D;53592;51.402;6.054;2022-10-30T05:32:37;13.95;80.86
65989;HTU21D;53592;51.402;6.054;2022-10-30T05:35:03;13.97;80.76
65989;HTU21D;53592;51.402;6.054;2022-10-30T05:37:29;14.01;80.63
65989;HTU21D;53592;51.402;6.054;2022-10-30T05:39:54;14.04;80.34
65989;HTU21D;53592;51.402;6.054;2022-10-30T05:42:20;14.03;80.03
65989;HTU21D;53592;51.402;6.054;2022-10-30T05:44:45;13.98;80.14
65989;HTU21D;53592;51.402;6.054;2022-10-30T05:47:11;13.96;80.47
65989;HTU21D;53592;51.402;6.054;2022-10-30T05:49:36;13.99;80.40
65989;HTU21D;53592;51.402;6.054;2022-10-30T05:52:02;14.05;80.23
65989;HTU21D;53592;51.402;6.054;2022-10-30T05:54:27;14.12;79.78
65989;HTU21D;53592;51.402;6.054;2022-10-30T05:56:53;14.12;79.42
65989;HTU21D;53592;51.402;6.054;2022-10-30T05:59:18;14.09;79.49
65989;HTU21D;53592;51.402;6.054;2022-10-30T06:01:44;14.07;79.65
65989;HTU21D;53592;51.402;6.054;2022-10-30T06:04:09;14.07;79.72
65989;HTU21D;53592;51.402;6.054;2022-10-30T06:06:35;14.04;79.84
65989;HTU21D;53592;51.402;6.054;2022-10-30T06:09:00;14.00;79.94
65989;HTU21D;53592;51.402;6.054;2022-10-30T06:11:26;13.93;80.14
65989;HTU21D;53592;51.402;6.054;2022-10-30T06:13:51;13.84;80.26
65989;HTU21D;53592;51.402;6.054;2022-10-30T06:16:17;13.78;80.65
65989;HTU21D;53592;51.402;6.054;2022-10-30T06:18:42;13.74;80.78
65989;HTU21D;53592;51.402;6.054;2022-10-30T06:21:08;13.69;80.88
65989;HTU21D;53592;51.402;6.054;2022-10-30T06:23:33;13.65;81.13
65989;HTU21D;53592;51.402;6.054;2022-10-30T06:25:59;13.63;81.34
65989;HTU21D;53592;51.402;6.054;2022-10-30T06:28:24;13.59;81.46
65989;HTU21D;53592;51.402;6.054;2022-10-30T06:30:50;13.56;81.53
65989;HTU21D;53592;51.402;6.054;2022-10-30T06:33:15;13.55;81.63
65989;HTU21D;53592;51.402;6.054;2022-10-30T06:35:40;13.56;81.49
65989;HTU21D;53592;51.402;6.054;2022-10-30T06:38:06;13.58;81.47
65989;HTU21D;53592;51.402;6.054;2022-10-30T06:40:33;13.63;81.39
65989;HTU21D;53592;51.402;6.054;2022-10-30T06:42:58;13.66;80.98
65989;HTU21D;53592;51.402;6.054;2022-10-30T06:45:24;13.69;80.85
65989;HTU21D;53592;51.402;6.054;2022-10-30T06:47:50;13.76;80.48
65989;HTU21D;53592;51.402;6.054;2022-10-30T06:50:19;13.81;80.10
65989;HTU21D;53592;51.402;6.054;2022-10-30T06:52:44;13.82;79.95
65989;HTU21D;53592;51.402;6.054;2022-10-30T06:55:10;13.83;79.70
65989;HTU21D;53592;51.402;6.054;2022-10-30T06:57:37;13.75;79.90
65989;HTU21D;53592;51.402;6.054;2022-10-30T07:00:04;13.68;80.40
65989;HTU21D;53592;51.402;6.054;2022-10-30T07:02:30;13.68;80.71
65989;HTU21D;53592;51.402;6.054;2022-10-30T07:04:56;13.73;80.63
65989;HTU21D;53592;51.402;6.054;2022-10-30T07:07:21;13.73;80.75
65989;HTU21D;53592;51.402;6.054;2022-10-30T07:09:47;13.74;80.99
65989;HTU21D;53592;51.402;6.054;2022-10-30T07:12:12;13.71;81.13
65989;HTU21D;53592;51.402;6.054;2022-10-30T07:14:38;13.68;81.48
65989;HTU21D;53592;51.402;6.054;2022-10-30T07:17:03;13.68;81.83
65989;HTU21D;53592;51.402;6.054;2022-10-30T07:19:29;13.75;81.85
65989;HTU21D;53592;51.402;6.054;2022-10-30T07:21:56;13.81;81.63
65989;HTU21D;53592;51.402;6.054;2022-10-30T07:24:21;13.89;81.26
65989;HTU21D;53592;51.402;6.054;2022-10-30T07:26:47;13.89;81.36
65989;HTU21D;53592;51.402;6.054;2022-10-30T07:29:12;13.92;81.57
65989;HTU21D;53592;51.402;6.054;2022-10-30T07:31:38;13.99;81.44
65989;HTU21D;53592;51.402;6.054;2022-10-30T07:34:03;14.09;81.17
65989;HTU21D;53592;51.402;6.054;2022-10-30T07:36:29;14.14;81.20
65989;HTU21D;53592;51.402;6.054;2022-10-30T07:38:54;14.20;81.46
65989;HTU21D;53592;51.402;6.054;2022-10-30T07:41:20;14.26;81.27
65989;HTU21D;53592;51.402;6.054;2022-10-30T07:43:47;14.33;81.04
65989;HTU21D;53592;51.402;6.054;2022-10-30T07:46:13;14.39;80.91
65989;HTU21D;53592;51.402;6.054;2022-10-30T07:48:39;14.45;80.89
65989;HTU21D;53592;51.402;6.054;2022-10-30T07:51:06;14.53;80.81
65989;HTU21D;53592;51.402;6.054;2022-10-30T07:53:32;14.59;80.84
65989;HTU21D;53592;51.402;6.054;2022-10-30T07:55:57;14.68;80.88
65989;HTU21D;53592;51.402;6.054;2022-10-30T07:58:23;14.77;80.67
65989;HTU21D;53592;51.402;6.054;2022-10-30T08:00:48;14.84;80.36
65989;HTU21D;53592;51.402;6.054;2022-10-30T08:03:14;14.91;80.16
65989;HTU21D;53592;51.402;6.054;2022-10-30T08:09:39;15.17;80.14
65989;HTU21D;53592;51.402;6.054;2022-10-30T08:12:05;15.26;79.70
65989;HTU21D;53592;51.402;6.054;2022-10-30T08:14:30;15.34;79.69
65989;HTU21D;53592;51.402;6.054;2022-10-30T08:16:56;15.52;79.50
65989;HTU21D;53592;51.402;6.054;2022-10-30T08:19:21;15.61;79.49
65989;HTU21D;53592;51.402;6.054;2022-10-30T08:21:46;15.74;79.17
65989;HTU21D;53592;51.402;6.054;2022-10-30T08:24:12;15.89;79.19
65989;HTU21D;53592;51.402;6.054;2022-10-30T08:26:38;16.05;79.07
65989;HTU21D;53592;51.402;6.054;2022-10-30T08:29:03;16.19;78.24
65989;HTU21D;53592;51.402;6.054;2022-10-30T08:31:29;16.34;77.76
65989;HTU21D;53592;51.402;6.054;2022-10-30T08:33:55;16.61;76.10
65989;HTU21D;53592;51.402;6.054;2022-10-30T08:36:20;16.76;75.79
65989;HTU21D;53592;51.402;6.054;2022-10-30T08:38:45;16.89;75.26
65989;HTU21D;53592;51.402;6.054;2022-10-30T08:41:11;17.07;74.63
65989;HTU21D;53592;51.402;6.054;2022-10-30T08:43:36;17.32;73.15
65989;HTU21D;53592;51.402;6.054;2022-10-30T08:46:03;17.37;73.52
65989;HTU21D;53592;51.402;6.054;2022-10-30T08:48:28;17.49;73.17
65989;HTU21D;53592;51.402;6.054;2022-10-30T08:50:57;17.62;72.85
65989;HTU21D;53592;51.402;6.054;2022-10-30T08:53:23;17.73;72.76
65989;HTU21D;53592;51.402;6.054;2022-10-30T08:55:50;17.89;72.30
65989;HTU21D;53592;51.402;6.054;2022-10-30T08:58:16;18.09;71.94
65989;HTU21D;53592;51.402;6.054;2022-10-30T09:00:41;18.35;71.61
65989;HTU21D;53592;51.402;6.054;2022-10-30T09:03:07;18.55;71.19
65989;HTU21D;53592;51.402;6.054;2022-10-30T09:05:32;18.77;70.98
65989;HTU21D;53592;51.402;6.054;2022-10-30T09:07:58;18.96;70.25
65989;HTU21D;53592;51.402;6.054;2022-10-30T09:10:26;19.15;69.39
65989;HTU21D;53592;51.402;6.054;2022-10-30T09:12:56;19.27;68.10
65989;HTU21D;53592;51.402;6.054;2022-10-30T09:15:22;19.33;66.73
65989;HTU21D;53592;51.402;6.054;2022-10-30T09:17:48;19.35;65.56
65989;HTU21D;53592;51.402;6.054;2022-10-30T09:20:18;19.29;66.74
65989;HTU21D;53592;51.402;6.054;2022-10-30T09:22:44;19.40;66.59
65989;HTU21D;53592;51.402;6.054;2022-10-30T09:25:09;19.55;66.50
65989;HTU21D;53592;51.402;6.054;2022-10-30T09:27:38;19.67;66.41
65989;HTU21D;53592;51.402;6.054;2022-10-30T09:30:04;19.82;66.22
65989;HTU21D;53592;51.402;6.054;2022-10-30T09:32:30;19.95;65.98
65989;HTU21D;53592;51.402;6.054;2022-10-30T09:34:55;20.11;65.35
65989;HTU21D;53592;51.402;6.054;2022-10-30T09:37:21;20.24;64.82
65989;HTU21D;53592;51.402;6.054;2022-10-30T09:39:48;20.39;64.60
65989;HTU21D;53592;51.402;6.054;2022-10-30T09:45:02;20.49;64.45
65989;HTU21D;53592;51.402;6.054;2022-10-30T09:56:53;20.71;62.68
65989;HTU21D;53592;51.402;6.054;2022-10-30T10:05:16;20.85;62.11
65989;HTU21D;53592;51.402;6.054;2022-10-30T10:07:49;20.93;61.63
65989;HTU21D;53592;51.402;6.054;2022-10-30T10:10:41;20.98;60.48
65989;HTU21D;53592;51.402;6.054;2022-10-30T10:16:01;20.98;61.96
65989;HTU21D;53592;51.402;6.054;2022-10-30T10:18:46;21.04;61.03
65989;HTU21D;53592;51.402;6.054;2022-10-30T10:21:35;21.18;61.55
65989;HTU21D;53592;51.402;6.054;2022-10-30T10:24:20;21.33;61.61
65989;HTU21D;53592;51.402;6.054;2022-10-30T10:33:21;21.59;61.12
65989;HTU21D;53592;51.402;6.054;2022-10-30T10:36:13;21.60;60.03
65989;HTU21D;53592;51.402;6.054;2022-10-30T10:39:03;21.49;60.03
65989;HTU21D;53592;51.402;6.054;2022-10-30T10:50:09;21.35;60.93
65989;HTU21D;53592;51.402;6.054;2022-10-30T10:52:46;21.36;60.51
65989;HTU21D;53592;51.402;6.054;2022-10-30T10:55:24;21.34;60.76
65989;HTU21D;53592;51.402;6.054;2022-10-30T10:57:55;21.31;60.22
65989;HTU21D;53592;51.402;6.054;2022-10-30T11:00:22;21.29;60.09
65989;HTU21D;53592;51.402;6.054;2022-10-30T11:03:22;21.24;60.28
65989;HTU21D;53592;51.402;6.054;2022-10-30T11:05:53;21.30;60.00
65989;HTU21D;53592;51.402;6.054;2022-10-30T11:08:32;21.28;60.56
65989;HTU21D;53592;51.402;6.054;2022-10-30T11:11:04;21.28;60.53
65989;HTU21D;53592;51.402;6.054;2022-10-30T11:13:37;21.28;60.45
65989;HTU21D;53592;51.402;6.054;2022-10-30T11:18:37;21.33;60.32
65989;HTU21D;53592;51.402;6.054;2022-10-30T11:21:16;21.34;60.12
65989;HTU21D;53592;51.402;6.054;2022-10-30T11:23:45;21.39;60.85
65989;HTU21D;53592;51.402;6.054;2022-10-30T11:28:58;21.59;59.45
65989;HTU21D;53592;51.402;6.054;2022-10-30T11:31:29;21.62;59.63
65989;HTU21D;53592;51.402;6.054;2022-10-30T11:36:48;21.92;59.43
65989;HTU21D;53592;51.402;6.054;2022-10-30T11:42:16;22.18;59.61
65989;HTU21D;53592;51.402;6.054;2022-10-30T11:44:47;22.32;59.45
65989;HTU21D;53592;51.402;6.054;2022-10-30T11:47:16;22.43;59.35
65989;HTU21D;53592;51.402;6.054;2022-10-30T11:49:51;22.56;58.29
65989;HTU21D;53592;51.402;6.054;2022-10-30T11:52:20;22.62;56.62
65989;HTU21D;53592;51.402;6.054;2022-10-30T11:54:54;22.60;57.35
65989;HTU21D;53592;51.402;6.054;2022-10-30T11:57:27;22.66;57.23
65989;HTU21D;53592;51.402;6.054;2022-10-30T11:59:55;22.75;57.39
65989;HTU21D;53592;51.402;6.054;2022-10-30T12:02:27;22.86;57.48
65989;HTU21D;53592;51.402;6.054;2022-10-30T12:04:59;22.95;56.71
65989;HTU21D;53592;51.402;6.054;2022-10-30T12:07:29;22.99;56.82
65989;HTU21D;53592;51.402;6.054;2022-10-30T12:09:55;22.97;57.00
65989;HTU21D;53592;51.402;6.054;2022-10-30T12:12:53;22.96;57.31
65989;HTU21D;53592;51.402;6.054;2022-10-30T12:15:25;22.98;56.93
65989;HTU21D;53592;51.402;6.054;2022-10-30T12:17:54;23.00;55.40
65989;HTU21D;53592;51.402;6.054;2022-10-30T12:20:22;23.03;55.59
65989;HTU21D;53592;51.402;6.054;2022-10-30T12:22:48;23.17;53.94
65989;HTU21D;53592;51.402;6.054;2022-10-30T12:25:23;23.03;53.98
65989;HTU21D;53592;51.402;6.054;2022-10-30T12:27:58;22.91;54.64
65989;HTU21D;53592;51.402;6.054;2022-10-30T12:30:26;22.87;54.94
65989;HTU21D;53592;51.402;6.054;2022-10-30T12:37:59;22.86;55.95
65989;HTU21D;53592;51.402;6.054;2022-10-30T12:40:30;22.84;55.93
65989;HTU21D;53592;51.402;6.054;2022-10-30T12:43:12;22.80;56.61
65989;HTU21D;53592;51.402;6.054;2022-10-30T12:45:47;22.78;56.41
65989;HTU21D;53592;51.402;6.054;2022-10-30T12:48:54;22.72;56.98
65989;HTU21D;53592;51.402;6.054;2022-10-30T12:51:31;22.69;57.06
65989;HTU21D;53592;51.402;6.054;2022-10-30T12:54:16;22.62;56.63
65989;HTU21D;53592;51.402;6.054;2022-10-30T12:56:55;22.55;56.87
65989;HTU21D;53592;51.402;6.054;2022-10-30T13:05:27;22.42;58.24
65989;HTU21D;53592;51.402;6.054;2022-10-30T13:10:40;22.39;58.48
65989;HTU21D;53592;51.402;6.054;2022-10-30T13:15:54;22.36;58.25
65989;HTU21D;53592;51.402;6.054;2022-10-30T13:18:23;22.36;58.25
65989;HTU21D;53592;51.402;6.054;2022-10-30T13:23:43;22.41;58.74
65989;HTU21D;53592;51.402;6.054;2022-10-30T13:26:29;22.40;58.88
65989;HTU21D;53592;51.402;6.054;2022-10-30T13:29:22;22.43;59.27
65989;HTU21D;53592;51.402;6.054;2022-10-30T13:39:37;22.51;58.78
65989;HTU21D;53592;51.402;6.054;2022-10-30T13:45:38;22.52;59.13
65989;HTU21D;53592;51.402;6.054;2022-10-30T13:51:25;22.53;58.67
65989;HTU21D;53592;51.402;6.054;2022-10-30T13:54:18;22.53;58.88
65989;HTU21D;53592;51.402;6.054;2022-10-30T13:56:46;22.58;58.37
65989;HTU21D;53592;51.402;6.054;2022-10-30T14:05:22;22.64;58.05
65989;HTU21D;53592;51.402;6.054;2022-10-30T14:07:45;22.65;58.81
65989;HTU21D;53592;51.402;6.054;2022-10-30T14:10:30;22.65;58.67
65989;HTU21D;53592;51.402;6.054;2022-10-30T14:20:48;22.48;58.83
65989;HTU21D;53592;51.402;6.054;2022-10-30T14:23:20;22.43;59.38
65989;HTU21D;53592;51.402;6.054;2022-10-30T14:28:31;22.27;59.33
65989;HTU21D;53592;51.402;6.054;2022-10-30T14:31:06;22.19;59.51
65989;HTU21D;53592;51.402;6.054;2022-10-30T14:36:22;22.01;59.90
65989;HTU21D;53592;51.402;6.054;2022-10-30T14:38:58;21.94;60.41
65989;HTU21D;53592;51.402;6.054;2022-10-30T14:53:21;21.57;61.88
65989;HTU21D;53592;51.402;6.054;2022-10-30T14:56:08;21.52;62.43
65989;HTU21D;53592;51.402;6.054;2022-10-30T14:58:37;21.51;62.82
65989;HTU21D;53592;51.402;6.054;2022-10-30T15:06:12;21.46;63.48
65989;HTU21D;53592;51.402;6.054;2022-10-30T15:14:12;21.42;63.89
65989;HTU21D;53592;51.402;6.054;2022-10-30T15:16:42;21.39;64.07
65989;HTU21D;53592;51.402;6.054;2022-10-30T15:19:12;21.39;63.98
65989;HTU21D;53592;51.402;6.054;2022-10-30T15:21:47;21.37;63.96
65989;HTU21D;53592;51.402;6.054;2022-10-30T15:24:19;21.35;63.97
65989;HTU21D;53592;51.402;6.054;2022-10-30T15:26:52;21.31;64.24
65989;HTU21D;53592;51.402;6.054;2022-10-30T15:29:38;21.25;64.38
65989;HTU21D;53592;51.402;6.054;2022-10-30T15:32:18;21.21;64.55
65989;HTU21D;53592;51.402;6.054;2022-10-30T15:35:02;21.14;64.72
65989;HTU21D;53592;51.402;6.054;2022-10-30T15:37:29;21.07;64.92
65989;HTU21D;53592;51.402;6.054;2022-10-30T15:40:16;20.99;65.05
65989;HTU21D;53592;51.402;6.054;2022-10-30T15:42:43;20.95;65.14
65989;HTU21D;53592;51.402;6.054;2022-10-30T15:45:17;20.88;65.19
65989;HTU21D;53592;51.402;6.054;2022-10-30T15:47:57;20.83;65.21
65989;HTU21D;53592;51.402;6.054;2022-10-30T15:50:23;20.76;65.37
65989;HTU21D;53592;51.402;6.054;2022-10-30T15:52:49;20.70;65.57
65989;HTU21D;53592;51.402;6.054;2022-10-30T15:55:24;20.61;66.04
65989;HTU21D;53592;51.402;6.054;2022-10-30T15:57:53;20.55;66.23
65989;HTU21D;53592;51.402;6.054;2022-10-30T16:00:23;20.46;66.30
65989;HTU21D;53592;51.402;6.054;2022-10-30T16:05:37;20.28;66.83
65989;HTU21D;53592;51.402;6.054;2022-10-30T16:08:21;20.21;67.04
65989;HTU21D;53592;51.402;6.054;2022-10-30T16:10:51;20.15;67.23
65989;HTU21D;53592;51.402;6.054;2022-10-30T16:13:20;20.07;67.53
65989;HTU21D;53592;51.402;6.054;2022-10-30T16:15:47;19.99;67.78
65989;HTU21D;53592;51.402;6.054;2022-10-30T16:18:21;19.88;68.26
65989;HTU21D;53592;51.402;6.054;2022-10-30T16:20:53;19.77;68.74
65989;HTU21D;53592;51.402;6.054;2022-10-30T16:23:20;19.62;69.55
65989;HTU21D;53592;51.402;6.054;2022-10-30T16:25:46;19.41;70.46
65989;HTU21D;53592;51.402;6.054;2022-10-30T16:31:00;19.13;71.12
65989;HTU21D;53592;51.402;6.054;2022-10-30T16:33:28;19.01;71.53
65989;HTU21D;53592;51.402;6.054;2022-10-30T16:35:54;18.95;71.69
65989;HTU21D;53592;51.402;6.054;2022-10-30T16:38:22;18.92;71.80
65989;HTU21D;53592;51.402;6.054;2022-10-30T16:40:50;18.91;71.83
65989;HTU21D;53592;51.402;6.054;2022-10-30T16:43:28;18.88;71.65
65989;HTU21D;53592;51.402;6.054;2022-10-30T16:48:34;18.88;71.48
65989;HTU21D;53592;51.402;6.054;2022-10-30T16:51:02;18.84;71.49
65989;HTU21D;53592;51.402;6.054;2022-10-30T16:53:29;18.81;71.64
65989;HTU21D;53592;51.402;6.054;2022-10-30T16:55:57;18.77;71.71
65989;HTU21D;53592;51.402;6.054;2022-10-30T16:58:27;18.72;71.80
65989;HTU21D;53592;51.402;6.054;2022-10-30T17:01:01;18.69;71.84
65989;HTU21D;53592;51.402;6.054;2022-10-30T17:03:34;18.68;71.85
65989;HTU21D;53592;51.402;6.054;2022-10-30T17:08:52;18.54;72.05
65989;HTU21D;53592;51.402;6.054;2022-10-30T17:11:35;18.54;72.13
65989;HTU21D;53592;51.402;6.054;2022-10-30T17:14:05;18.53;72.05
65989;HTU21D;53592;51.402;6.054;2022-10-30T17:16:39;18.53;71.93
65989;HTU21D;53592;51.402;6.054;2022-10-30T17:21:58;18.50;71.71
65989;HTU21D;53592;51.402;6.054;2022-10-30T17:24:31;18.50;71.61
65989;HTU21D;53592;51.402;6.054;2022-10-30T17:27:00;18.48;71.51
65989;HTU21D;53592;51.402;6.054;2022-10-30T17:32:03;18.47;71.42
65989;HTU21D;53592;51.402;6.054;2022-10-30T17:34:28;18.46;71.40
65989;HTU21D;53592;51.402;6.054;2022-10-30T17:36:54;18.44;71.44
65989;HTU21D;53592;51.402;6.054;2022-10-30T17:39:24;18.41;71.49
65989;HTU21D;53592;51.402;6.054;2022-10-30T17:41:51;18.42;71.51
65989;HTU21D;53592;51.402;6.054;2022-10-30T17:44:22;18.43;71.51
65989;HTU21D;53592;51.402;6.054;2022-10-30T17:46:49;18.46;71.42
65989;HTU21D;53592;51.402;6.054;2022-10-30T17:49:30;18.46;71.34
65989;HTU21D;53592;51.402;6.054;2022-10-30T17:51:57;18.47;71.29
65989;HTU21D;53592;51.402;6.054;2022-10-30T17:54:23;18.47;71.33
65989;HTU21D;53592;51.402;6.054;2022-10-30T17:56:49;18.47;71.28
65989;HTU21D;53592;51.402;6.054;2022-10-30T17:59:15;18.46;71.26
65989;HTU21D;53592;51.402;6.054;2022-10-30T18:01:41;18.46;71.29
65989;HTU21D;53592;51.402;6.054;2022-10-30T18:04:13;18.46;71.27
65989;HTU21D;53592;51.402;6.054;2022-10-30T18:06:39;18.47;71.35